createdAt,value
2022-11-04T00:00:26.859Z,11.23
2022-11-04T00:02:57.233Z,11.15
2022-11-04T00:05:24.640Z,10.98
2022-11-04T00:08:09.663Z,11.90
2022-11-04T00:10:57.546Z,11.63
2022-11-04T00:13:24.954Z,11.32
2022-11-04T00:16:10.262Z,11.60
2022-11-04T00:18:37.651Z,11.95
2022-11-04T00:21:23.030Z,11.13
2022-11-04T00:24:07.836Z,11.20
2022-11-04T00:26:54.421Z,11.82
2022-11-04T00:29:21.809Z,11.90
2022-11-04T00:32:06.648Z,11.90
2022-11-04T00:34:34.138Z,11.68
2022-11-04T00:37:03.000Z,12.60
2022-11-04T00:39:30.813Z,12.18
2022-11-04T00:41:59.552Z,12.52
2022-11-04T00:44:26.943Z,12.00
2022-11-04T00:46:54.346Z,11.95
2022-11-04T00:49:21.740Z,12.38
2022-11-04T00:51:49.206Z,12.32
2022-11-04T00:54:16.591Z,12.88
2022-11-04T00:56:43.973Z,11.93
2022-11-04T00:59:14.598Z,12.13
2022-11-04T01:01:42.589Z,12.85
2022-11-04T01:04:10.498Z,12.38
2022-11-04T01:06:37.902Z,12.35
2022-11-04T01:09:08.135Z,12.85
2022-11-04T01:11:35.863Z,12.75
2022-11-04T01:14:03.272Z,12.50
2022-11-04T01:16:33.320Z,12.85
2022-11-04T01:19:01.103Z,12.60
2022-11-04T01:21:28.545Z,14.05
2022-11-04T01:23:55.959Z,13.75
2022-11-04T01:26:25.268Z,13.20
2022-11-04T01:28:54.636Z,13.27
2022-11-04T01:31:23.245Z,12.60
2022-11-04T01:33:53.039Z,13.38
2022-11-04T01:36:20.924Z,12.13
2022-11-04T01:38:48.722Z,12.43
2022-11-04T01:41:19.248Z,12.43
2022-11-04T01:43:50.064Z,12.70
2022-11-04T01:46:24.121Z,12.98
2022-11-04T01:48:53.214Z,12.65
2022-11-04T01:51:21.975Z,12.93
2022-11-04T01:53:52.258Z,12.57
2022-11-04T01:56:20.732Z,12.68
2022-11-04T01:58:50.756Z,12.82
2022-11-04T02:01:18.815Z,12.88
2022-11-04T02:03:50.033Z,13.10
2022-11-04T02:06:20.088Z,14.13
2022-11-04T02:08:47.728Z,13.60
2022-11-04T02:11:35.122Z,12.82
2022-11-04T02:14:01.803Z,13.10
2022-11-04T02:16:35.671Z,14.15
2022-11-04T02:21:54.420Z,12.80
2022-11-04T02:24:44.305Z,13.25
2022-11-04T02:27:21.530Z,13.27
2022-11-04T02:30:07.829Z,13.88
2022-11-04T02:32:43.833Z,13.73
2022-11-04T02:35:15.376Z,13.95
2022-11-04T02:37:48.495Z,13.93
2022-11-04T02:40:24.561Z,9.85
2022-11-04T02:42:57.680Z,13.60
2022-11-04T02:45:30.252Z,11.05
2022-11-04T02:48:03.477Z,14.75
2022-11-04T02:50:33.949Z,14.40
2022-11-04T02:53:06.460Z,14.13
2022-11-04T02:55:36.471Z,10.60
2022-11-04T02:58:06.735Z,15.13
2022-11-04T03:00:36.022Z,14.70
2022-11-04T03:03:09.308Z,14.13
2022-11-04T03:05:38.184Z,14.43
2022-11-04T03:08:15.531Z,14.75
2022-11-04T03:10:44.774Z,13.70
2022-11-04T03:13:14.462Z,14.30
2022-11-04T03:15:49.051Z,14.15
2022-11-04T03:18:21.086Z,14.60
2022-11-04T03:20:49.724Z,13.88
2022-11-04T03:23:17.406Z,13.63
2022-11-04T03:25:46.093Z,14.90
2022-11-04T03:28:24.959Z,14.30
2022-11-04T03:30:56.780Z,14.73
2022-11-04T03:33:28.396Z,14.15
2022-11-04T03:35:55.787Z,14.45
2022-11-04T03:38:23.324Z,13.95
2022-11-04T03:40:51.056Z,14.55
2022-11-04T03:43:21.817Z,14.18
2022-11-04T03:45:49.883Z,13.05
2022-11-04T03:48:18.704Z,13.02
2022-11-04T03:50:47.819Z,15.00
2022-11-04T03:53:18.104Z,14.93
2022-11-04T03:55:52.951Z,15.35
2022-11-04T03:58:28.300Z,14.40
2022-11-04T04:01:01.451Z,15.55
2022-11-04T04:03:34.990Z,11.60
2022-11-04T04:06:09.619Z,15.27
2022-11-04T04:08:39.840Z,15.70
2022-11-04T04:11:10.428Z,15.65
2022-11-04T04:13:42.498Z,15.38
2022-11-04T04:16:12.050Z,15.48
2022-11-04T04:18:43.427Z,16.27
2022-11-04T04:21:15.192Z,16.95
2022-11-04T04:24:00.501Z,15.82
2022-11-04T04:26:46.311Z,17.23
2022-11-04T04:29:13.939Z,27.90
2022-11-04T04:31:50.717Z,26.08
2022-11-04T04:34:20.737Z,19.70
2022-11-04T04:36:52.087Z,19.55
2022-11-04T04:39:40.651Z,30.27
2022-11-04T04:42:26.488Z,22.40
2022-11-04T04:45:04.135Z,17.23
2022-11-04T04:47:35.992Z,16.60
2022-11-04T04:50:05.458Z,21.95
2022-11-04T04:52:34.805Z,19.88
2022-11-04T04:55:02.274Z,17.60
2022-11-04T04:57:29.739Z,16.90
2022-11-04T04:59:57.138Z,15.88
2022-11-04T05:02:24.611Z,16.10
2022-11-04T05:04:52.092Z,14.95
2022-11-04T05:07:20.807Z,15.52
2022-11-04T05:09:48.211Z,17.65
2022-11-04T05:12:15.614Z,16.00
2022-11-04T05:14:42.998Z,17.05
2022-11-04T05:17:10.418Z,17.38
2022-11-04T05:19:37.803Z,18.48
2022-11-04T05:22:05.572Z,17.13
2022-11-04T05:24:34.299Z,17.50
2022-11-04T05:27:01.719Z,16.90
2022-11-04T05:29:29.101Z,16.60
2022-11-04T05:31:56.503Z,17.25
2022-11-04T05:34:23.942Z,16.55
2022-11-04T05:36:51.329Z,17.02
2022-11-04T05:39:18.743Z,19.77
2022-11-04T05:41:47.447Z,18.20
2022-11-04T05:44:15.764Z,17.50
2022-11-04T05:46:43.489Z,17.90
2022-11-04T05:49:11.004Z,17.77
2022-11-04T05:51:38.409Z,18.00
2022-11-04T05:54:05.840Z,18.05
2022-11-04T05:56:33.168Z,16.40
2022-11-04T05:59:01.905Z,17.67
2022-11-04T06:01:33.930Z,17.23
2022-11-04T06:04:02.004Z,17.13
2022-11-04T06:06:31.085Z,17.48
2022-11-04T06:08:58.751Z,17.17
2022-11-04T06:11:27.323Z,18.15
2022-11-04T06:13:55.327Z,18.42
2022-11-04T06:16:24.390Z,17.70
2022-11-04T06:18:52.045Z,18.25
2022-11-04T06:21:26.071Z,18.83
2022-11-04T06:23:54.384Z,19.10
2022-11-04T06:26:26.868Z,18.13
2022-11-04T06:28:55.474Z,18.95
2022-11-04T06:31:24.389Z,18.30
2022-11-04T06:33:51.859Z,19.17
2022-11-04T06:36:19.321Z,18.17
2022-11-04T06:38:46.715Z,18.02
2022-11-04T06:41:15.854Z,18.48
2022-11-04T06:43:43.343Z,18.33
2022-11-04T06:46:27.310Z,18.52
2022-11-04T06:48:54.725Z,18.90
2022-11-04T06:51:22.120Z,19.02
2022-11-04T06:53:49.520Z,18.55
2022-11-04T06:56:17.020Z,18.15
2022-11-04T06:58:44.540Z,18.58
2022-11-04T07:01:16.053Z,19.52
2022-11-04T07:03:49.893Z,19.60
2022-11-04T07:06:17.304Z,18.17
2022-11-04T07:08:44.845Z,19.10
2022-11-04T07:11:12.498Z,19.02
2022-11-04T07:13:40.777Z,19.75
2022-11-04T07:16:08.879Z,19.17
2022-11-04T07:18:36.441Z,18.98
2022-11-04T07:21:09.920Z,20.55
2022-11-04T07:23:37.948Z,21.20
2022-11-04T07:26:07.781Z,20.80
2022-11-04T07:28:35.950Z,20.83
2022-11-04T07:31:05.224Z,21.42
2022-11-04T07:33:33.776Z,22.58
2022-11-04T07:36:05.980Z,22.33
2022-11-04T07:38:33.554Z,23.02
2022-11-04T07:41:02.457Z,22.35
2022-11-04T07:43:30.333Z,22.00
2022-11-04T07:46:02.305Z,21.80
2022-11-04T07:48:30.404Z,21.98
2022-11-04T07:50:58.851Z,21.05
2022-11-04T07:53:28.123Z,21.42
2022-11-04T07:55:55.508Z,21.90
2022-11-04T07:58:23.927Z,21.92
2022-11-04T08:00:51.426Z,20.80
2022-11-04T08:03:18.954Z,20.85
2022-11-04T08:05:46.405Z,20.15
2022-11-04T08:08:14.229Z,20.30
2022-11-04T08:10:42.939Z,19.80
2022-11-04T08:13:10.791Z,19.92
2022-11-04T08:15:38.533Z,20.77
2022-11-04T08:18:06.188Z,20.02
2022-11-04T08:20:33.562Z,20.48
2022-11-04T08:23:00.987Z,20.45
2022-11-04T08:25:28.402Z,19.75
2022-11-04T08:28:00.866Z,20.23
2022-11-04T08:30:28.796Z,19.38
2022-11-04T08:32:56.187Z,19.50
2022-11-04T08:35:23.701Z,19.83
2022-11-04T08:37:51.101Z,20.27
2022-11-04T08:40:18.489Z,19.65
2022-11-04T08:42:45.915Z,19.60
2022-11-04T08:45:14.725Z,19.98
2022-11-04T08:47:42.174Z,18.75
2022-11-04T08:50:11.431Z,18.67
2022-11-04T08:52:38.836Z,18.13
2022-11-04T08:55:06.937Z,18.58
2022-11-04T08:57:34.337Z,19.40
2022-11-04T09:00:01.734Z,18.75
2022-11-04T09:02:30.488Z,19.13
2022-11-04T09:04:57.891Z,19.88
2022-11-04T09:07:25.296Z,17.45
2022-11-04T09:09:52.724Z,18.25
2022-11-04T09:12:20.424Z,17.58
2022-11-04T09:14:47.834Z,17.20
2022-11-04T09:17:15.281Z,16.17
2022-11-04T09:19:44.034Z,16.38
2022-11-04T09:22:11.481Z,15.85
2022-11-04T09:24:38.901Z,14.27
2022-11-04T09:27:06.538Z,15.00
2022-11-04T09:29:34.224Z,13.98
2022-11-04T09:32:01.812Z,14.48
2022-11-04T09:34:29.307Z,13.80
2022-11-04T09:36:58.694Z,14.38
2022-11-04T09:39:26.268Z,14.02
2022-11-04T09:42:18.407Z,14.30
2022-11-04T09:45:19.379Z,14.00
2022-11-04T09:47:38.759Z,13.07
2022-11-04T09:50:11.287Z,12.73
2022-11-04T09:52:42.559Z,12.68
2022-11-04T09:55:16.278Z,11.93
2022-11-04T09:57:43.773Z,11.98
2022-11-04T10:00:16.108Z,10.60
2022-11-04T10:03:10.788Z,11.30
2022-11-04T10:05:48.613Z,10.48
2022-11-04T10:08:41.397Z,10.50
2022-11-04T10:11:14.393Z,9.07
2022-11-04T10:13:54.001Z,7.97
2022-11-04T10:16:34.107Z,10.70
2022-11-04T10:19:21.747Z,10.57
2022-11-04T10:21:59.482Z,10.20
2022-11-04T10:24:39.065Z,10.15
2022-11-04T10:27:12.270Z,10.20
2022-11-04T10:29:44.044Z,9.45
2022-11-04T10:32:21.921Z,10.25
2022-11-04T10:34:55.035Z,9.13
2022-11-04T10:37:22.433Z,9.60
2022-11-04T10:39:51.332Z,9.57
2022-11-04T10:42:21.423Z,9.70
2022-11-04T10:44:50.377Z,10.15
2022-11-04T10:47:29.275Z,10.32
2022-11-04T10:52:50.854Z,10.15
2022-11-04T10:55:29.538Z,10.10
2022-11-04T10:57:58.461Z,10.82
2022-11-04T11:00:37.123Z,10.27
2022-11-04T11:03:05.335Z,9.82
2022-11-04T11:05:32.854Z,9.85
2022-11-04T11:08:00.635Z,10.20
2022-11-04T11:10:31.024Z,11.10
2022-11-04T11:13:02.060Z,11.00
2022-11-04T11:15:32.663Z,10.40
2022-11-04T11:18:16.929Z,10.63
2022-11-04T11:20:49.342Z,11.75
2022-11-04T11:23:42.377Z,11.63
2022-11-04T11:26:14.577Z,11.73
2022-11-04T11:28:42.780Z,12.63
2022-11-04T11:31:16.247Z,12.63
2022-11-04T11:33:49.930Z,11.85
2022-11-04T11:36:20.357Z,12.07
2022-11-04T11:38:57.207Z,11.77
2022-11-04T11:41:31.425Z,11.43
2022-11-04T11:44:01.896Z,11.32
2022-11-04T11:46:31.419Z,12.23
2022-11-04T11:49:01.340Z,12.20
2022-11-04T11:51:32.721Z,11.43
2022-11-04T11:54:18.095Z,12.35
2022-11-04T11:57:12.658Z,12.65
2022-11-04T12:02:44.397Z,12.57
2022-11-04T12:11:00.038Z,13.15
2022-11-04T12:13:31.461Z,12.32
2022-11-04T12:16:17.091Z,12.60
2022-11-04T12:18:54.241Z,13.02
2022-11-04T12:21:26.899Z,13.52
2022-11-04T12:23:56.818Z,13.30
2022-11-04T12:26:31.386Z,12.52
2022-11-04T12:29:06.967Z,12.77
2022-11-04T12:31:43.289Z,12.98
2022-11-04T12:34:15.574Z,13.00
2022-11-04T12:36:54.089Z,14.10
2022-11-04T12:39:34.981Z,14.27
2022-11-04T12:42:20.951Z,13.57
2022-11-04T12:44:56.654Z,13.95
2022-11-04T12:47:34.056Z,14.50
2022-11-04T12:50:10.440Z,13.80
2022-11-04T12:53:00.043Z,14.43
2022-11-04T12:55:34.910Z,14.93
2022-11-04T12:58:14.912Z,16.98
2022-11-04T13:00:44.140Z,15.98
2022-11-04T13:03:14.951Z,15.70
2022-11-04T13:05:45.813Z,15.63
2022-11-04T13:08:21.503Z,16.13
2022-11-04T13:10:53.890Z,15.85
2022-11-04T13:13:24.411Z,18.00
2022-11-04T13:15:57.751Z,15.52
2022-11-04T13:18:27.384Z,16.50
2022-11-04T13:21:02.649Z,15.73
2022-11-04T13:23:37.035Z,16.67
2022-11-04T13:28:32.605Z,16.85
2022-11-04T13:31:05.741Z,18.58
2022-11-04T13:33:39.509Z,18.90
2022-11-04T13:36:16.175Z,18.25
2022-11-04T13:38:45.621Z,17.35
2022-11-04T13:41:29.980Z,17.33
2022-11-04T13:43:58.701Z,17.63
2022-11-04T13:46:30.685Z,17.15
2022-11-04T13:49:02.215Z,16.23
2022-11-04T13:51:39.371Z,18.35
2022-11-04T13:54:07.639Z,17.15
2022-11-04T13:56:37.559Z,19.10
2022-11-04T13:59:18.128Z,17.80
2022-11-04T14:01:47.265Z,18.35
2022-11-04T14:04:28.527Z,17.95
2022-11-04T14:06:58.667Z,18.50
2022-11-04T14:09:40.374Z,18.52
2022-11-04T14:12:27.732Z,18.50
2022-11-04T14:14:56.374Z,17.27
2022-11-04T14:18:13.072Z,18.55
2022-11-04T14:21:05.551Z,17.67
2022-11-04T14:23:33.816Z,17.95
2022-11-04T14:26:02.550Z,16.80
2022-11-04T14:28:30.957Z,15.95
2022-11-04T14:31:00.396Z,16.80
2022-11-04T14:33:40.517Z,15.95
2022-11-04T14:36:30.330Z,16.30
2022-11-04T14:39:00.530Z,16.27
2022-11-04T14:41:49.502Z,16.70
2022-11-04T14:44:21.380Z,17.15
2022-11-04T14:46:50.307Z,15.77
2022-11-04T14:49:33.715Z,16.30
2022-11-04T14:52:01.106Z,17.38
2022-11-04T14:54:32.383Z,17.08
2022-11-04T14:57:10.508Z,17.83
2022-11-04T14:59:37.905Z,18.25
2022-11-04T15:02:05.520Z,17.30
2022-11-04T15:04:34.376Z,17.73
2022-11-04T15:07:04.332Z,19.00
2022-11-04T15:09:34.472Z,18.02
2022-11-04T15:12:27.920Z,17.65
2022-11-04T15:14:55.357Z,18.05
2022-11-04T15:17:24.398Z,19.20
2022-11-04T15:19:55.985Z,17.42
2022-11-04T15:22:23.668Z,17.20
2022-11-04T15:24:51.581Z,17.65
2022-11-04T15:27:21.696Z,19.33
2022-11-04T15:29:55.197Z,18.00
2022-11-04T15:32:22.688Z,18.52
2022-11-04T15:34:50.629Z,19.13
2022-11-04T15:37:19.825Z,21.85
2022-11-04T15:39:49.326Z,22.45
2022-11-04T15:42:42.896Z,21.73
2022-11-04T15:45:32.917Z,15.20
2022-11-04T15:48:23.462Z,20.95
2022-11-04T15:50:54.271Z,20.23
2022-11-04T15:53:23.029Z,20.15
2022-11-04T15:55:50.463Z,20.23
2022-11-04T15:58:17.904Z,20.27
2022-11-04T16:00:53.252Z,18.85
2022-11-04T16:03:22.575Z,19.38
2022-11-04T16:06:02.320Z,19.50
2022-11-04T16:08:32.284Z,20.42
2022-11-04T16:11:11.788Z,19.98
2022-11-04T16:13:39.447Z,19.48
2022-11-04T16:16:09.979Z,18.08
2022-11-04T16:18:39.101Z,19.08
2022-11-04T16:21:10.616Z,18.95
2022-11-04T16:23:44.702Z,17.70
2022-11-04T16:26:12.375Z,17.35
2022-11-04T16:28:40.970Z,18.67
2022-11-04T16:31:18.246Z,19.67
2022-11-04T16:33:45.615Z,19.23
2022-11-04T16:36:13.679Z,19.63
2022-11-04T16:38:42.383Z,18.77
2022-11-04T16:41:09.809Z,19.00
2022-11-04T16:43:41.909Z,18.63
2022-11-04T16:46:09.287Z,18.48
2022-11-04T16:48:36.678Z,18.65
2022-11-04T16:51:04.494Z,18.73
2022-11-04T16:53:31.876Z,18.25
2022-11-04T16:56:01.184Z,19.17
2022-11-04T16:58:29.733Z,17.83
2022-11-04T17:01:02.429Z,18.63
2022-11-04T17:03:32.865Z,17.83
2022-11-04T17:06:00.281Z,18.00
2022-11-04T17:08:28.109Z,18.30
2022-11-04T17:10:55.561Z,19.25
2022-11-04T17:13:24.286Z,19.13
2022-11-04T17:15:51.809Z,18.25
2022-11-04T17:18:19.361Z,17.63
2022-11-04T17:20:50.836Z,18.98
2022-11-04T17:23:18.960Z,16.98
2022-11-04T17:25:46.997Z,18.65
2022-11-04T17:28:14.760Z,18.00
2022-11-04T17:30:44.193Z,19.80
2022-11-04T17:33:13.736Z,18.08
2022-11-04T17:35:42.522Z,17.13
2022-11-04T17:38:11.148Z,18.02
2022-11-04T17:40:59.482Z,18.17
2022-11-04T17:43:45.194Z,18.48
2022-11-04T17:46:32.048Z,18.20
2022-11-04T17:48:59.651Z,18.27
2022-11-04T17:51:27.263Z,17.77
2022-11-04T17:53:54.670Z,17.80
2022-11-04T17:56:23.489Z,17.20
2022-11-04T17:58:50.915Z,17.83
2022-11-04T18:01:21.768Z,17.65
2022-11-04T18:03:49.415Z,19.10
2022-11-04T18:06:16.821Z,18.25
2022-11-04T18:08:44.263Z,18.15
2022-11-04T18:11:12.319Z,19.55
2022-11-04T18:13:38.772Z,18.27
2022-11-04T18:16:10.589Z,19.20
2022-11-04T18:18:39.477Z,19.23
2022-11-04T18:21:08.781Z,18.95
2022-11-04T18:23:36.174Z,19.13
2022-11-04T18:26:03.765Z,19.83
2022-11-04T18:28:31.629Z,19.95
2022-11-04T18:30:59.319Z,19.50
2022-11-04T18:33:26.775Z,18.73
2022-11-04T18:35:55.514Z,19.63
2022-11-04T18:38:22.940Z,19.60
2022-11-04T18:40:50.376Z,20.33
2022-11-04T18:43:17.850Z,20.50
2022-11-04T18:45:45.281Z,20.48
2022-11-04T18:48:12.883Z,21.10
2022-11-04T18:50:40.481Z,20.45
2022-11-04T18:53:11.188Z,20.15
2022-11-04T18:55:38.828Z,21.95
2022-11-04T18:58:06.381Z,21.80
2022-11-04T19:00:34.003Z,22.70
2022-11-04T19:03:02.079Z,23.23
2022-11-04T19:05:29.752Z,21.98
2022-11-04T19:07:57.241Z,22.35
2022-11-04T19:10:26.024Z,21.80
2022-11-04T19:13:11.040Z,22.80
2022-11-04T19:15:38.484Z,22.17
2022-11-04T19:18:05.950Z,21.67
2022-11-04T19:20:33.454Z,23.33
2022-11-04T19:23:00.985Z,22.35
2022-11-04T19:25:30.161Z,23.33
2022-11-04T19:28:31.501Z,23.17
2022-11-04T19:30:58.128Z,23.23
2022-11-04T19:33:25.626Z,23.05
2022-11-04T19:35:53.763Z,22.63
2022-11-04T19:38:24.320Z,23.73
2022-11-04T19:40:53.605Z,22.17
2022-11-04T19:43:21.039Z,23.83
2022-11-04T19:45:49.545Z,23.77
2022-11-04T19:48:18.472Z,25.13
2022-11-04T19:50:48.050Z,25.52
2022-11-04T19:53:16.016Z,26.30
2022-11-04T19:55:49.168Z,26.10
2022-11-04T19:58:19.072Z,27.40
2022-11-04T20:00:47.279Z,28.20
2022-11-04T20:03:15.176Z,26.50
2022-11-04T20:05:44.999Z,26.42
2022-11-04T20:08:13.029Z,27.52
2022-11-04T20:10:42.823Z,27.33
2022-11-04T20:13:44.390Z,28.63
2022-11-04T20:16:18.934Z,27.45
2022-11-04T20:18:48.075Z,28.33
2022-11-04T20:21:15.943Z,30.15
2022-11-04T20:23:44.050Z,28.77
2022-11-04T20:26:19.209Z,31.92
2022-11-04T20:28:48.538Z,29.30
2022-11-04T20:31:19.203Z,31.45
2022-11-04T20:33:47.183Z,30.92
2022-11-04T20:36:16.968Z,30.33
2022-11-04T20:38:44.377Z,31.55
2022-11-04T20:41:15.391Z,31.88
2022-11-04T20:43:42.774Z,29.58
2022-11-04T20:46:13.113Z,28.75
2022-11-04T20:48:41.849Z,28.25
2022-11-04T20:51:10.396Z,26.90
2022-11-04T20:53:38.192Z,28.35
2022-11-04T20:56:06.908Z,29.08
2022-11-04T20:58:34.902Z,30.65
2022-11-04T21:01:03.584Z,29.95
2022-11-04T21:03:31.339Z,29.10
2022-11-04T21:06:00.149Z,28.73
2022-11-04T21:08:27.697Z,28.75
2022-11-04T21:10:56.721Z,27.63
2022-11-04T21:13:24.212Z,27.60
2022-11-04T21:15:52.330Z,28.80
2022-11-04T21:18:19.829Z,28.63
2022-11-04T21:20:47.574Z,29.40
2022-11-04T21:23:17.545Z,27.55
2022-11-04T21:25:46.436Z,28.35
2022-11-04T21:28:14.460Z,26.13
2022-11-04T21:30:44.686Z,26.85
2022-11-04T21:33:12.638Z,26.80
2022-11-04T21:35:41.062Z,27.02
2022-11-04T21:38:10.316Z,28.20
2022-11-04T21:40:39.179Z,28.42
2022-11-04T21:43:06.601Z,26.58
2022-11-04T21:45:34.957Z,25.02
2022-11-04T21:48:02.778Z,26.05
2022-11-04T21:50:30.305Z,26.27
2022-11-04T21:52:58.517Z,24.48
2022-11-04T21:55:26.108Z,25.80
2022-11-04T21:57:54.838Z,24.45
2022-11-04T22:00:22.492Z,25.60
2022-11-04T22:02:51.552Z,25.20
2022-11-04T22:05:19.270Z,24.42
2022-11-04T22:08:04.477Z,25.15
2022-11-04T22:10:31.932Z,24.75
2022-11-04T22:13:00.646Z,23.85
2022-11-04T22:15:45.564Z,23.05
2022-11-04T22:18:13.016Z,23.67
2022-11-04T22:20:40.477Z,23.95
2022-11-04T22:23:08.353Z,24.60
2022-11-04T22:25:35.988Z,25.48
2022-11-04T22:28:04.994Z,25.48
2022-11-04T22:30:32.494Z,25.42
2022-11-04T22:33:00.040Z,25.98
2022-11-04T22:35:27.463Z,25.27
2022-11-04T22:37:54.878Z,25.90
2022-11-04T22:40:22.293Z,26.17
2022-11-04T22:42:49.788Z,27.65
2022-11-04T22:45:18.857Z,25.45
2022-11-04T22:47:47.738Z,25.48
2022-11-04T22:50:18.527Z,24.70
2022-11-04T22:52:46.514Z,24.02
2022-11-04T22:55:15.594Z,24.15
2022-11-04T22:57:43.452Z,23.63
2022-11-04T23:00:12.883Z,24.30
2022-11-04T23:02:42.277Z,23.17
2022-11-04T23:05:11.578Z,23.63
2022-11-04T23:07:46.273Z,23.65
2022-11-04T23:10:31.644Z,22.88
2022-11-04T23:13:17.590Z,21.85
2022-11-04T23:16:02.510Z,22.40
2022-11-04T23:18:43.570Z,21.58
2022-11-04T23:21:30.093Z,22.05
2022-11-04T23:24:15.370Z,21.30
2022-11-04T23:26:45.354Z,22.08
2022-11-04T23:29:30.518Z,21.42
2022-11-04T23:31:58.022Z,21.65
2022-11-04T23:34:44.689Z,22.98
2022-11-04T23:37:16.468Z,22.25
2022-11-04T23:45:34.070Z,22.42
2022-11-04T23:48:20.684Z,23.40
2022-11-04T23:54:12.267Z,23.00
2022-11-04T23:56:57.278Z,23.05
2022-11-04T23:59:42.086Z,22.73
